Time;durP1;ratioP1;P1;durP2;ratioP2;P2;SDS_P1;SDS_P2;PMS_P1;PMS_P2;Temp;Humidity;BMP_temperature;BMP_pressure;BME280_temperature;BME280_humidity;BME280_pressure;Samples;Min_cycle;Max_cycle;Signal;HPM_P1;HPM_P2
2024/02/18 00:02:13;;;;;;;14.45;8.90;;;;;;;8.54;100.00;100531.03;5029421;28;20225;-78
2024/02/18 00:04:38;;;;;;;18.33;9.32;;;;;;;8.53;100.00;100532.88;5035779;28;20092;-78
2024/02/18 00:07:04;;;;;;;20.25;8.95;;;;;;;8.61;100.00;100536.69;5037550;28;20020;-78
2024/02/18 00:09:30;;;;;;;18.02;9.30;;;;;;;8.51;100.00;100521.41;5032866;28;20140;-78
2024/02/18 00:11:56;;;;;;;16.15;8.65;;;;;;;8.53;100.00;100521.25;5038460;28;20029;-78
2024/02/18 00:14:21;;;;;;;17.25;9.23;;;;;;;8.52;100.00;100515.00;5053552;28;20025;-78
2024/02/18 00:16:47;;;;;;;13.63;8.75;;;;;;;8.53;100.00;100519.41;5036220;28;20205;-78
2024/02/18 00:19:12;;;;;;;14.20;8.82;;;;;;;8.40;100.00;100515.34;5033818;28;20032;-78
2024/02/18 00:21:37;;;;;;;15.05;9.35;;;;;;;8.36;100.00;100522.84;5038750;28;20022;-78
2024/02/18 00:24:06;;;;;;;15.25;9.52;;;;;;;8.39;100.00;100527.97;5032871;28;20036;-78
2024/02/18 00:26:32;;;;;;;18.55;9.13;;;;;;;8.30;100.00;100507.25;5040409;28;20036;-78
2024/02/18 00:28:57;;;;;;;18.63;9.50;;;;;;;8.35;100.00;100516.59;5043797;28;20029;-78
2024/02/18 00:31:22;;;;;;;13.25;8.43;;;;;;;8.36;100.00;100512.06;5031848;28;20032;-78
2024/02/18 00:33:47;;;;;;;14.77;8.40;;;;;;;8.44;100.00;100527.56;5037316;28;20069;-78
2024/02/18 00:36:13;;;;;;;14.98;8.88;;;;;;;8.26;100.00;100489.69;5035441;28;20025;-78
2024/02/18 00:38:42;;;;;;;19.83;8.68;;;;;;;8.43;100.00;100520.44;5033400;28;20033;-83
2024/02/18 00:41:07;;;;;;;16.87;9.17;;;;;;;8.39;100.00;100527.09;5048035;22;20268;-77
2024/02/18 00:43:33;;;;;;;14.90;8.82;;;;;;;8.44;100.00;100519.47;5022310;28;20276;-77
2024/02/18 00:45:58;;;;;;;16.73;9.02;;;;;;;8.40;100.00;100518.03;5021740;28;20029;-77
2024/02/18 00:48:23;;;;;;;16.23;9.10;;;;;;;8.38;100.00;100509.22;5020204;28;20038;-76
2024/02/18 00:50:48;;;;;;;13.35;8.63;;;;;;;8.33;100.00;100507.81;5023862;28;20025;-77
2024/02/18 00:53:14;;;;;;;15.23;9.18;;;;;;;8.26;100.00;100495.91;5022969;28;20021;-77
2024/02/18 00:55:43;;;;;;;15.85;9.55;;;;;;;8.41;100.00;100508.94;5023448;28;20520;-76
2024/02/18 00:58:12;;;;;;;17.65;9.20;;;;;;;8.38;100.00;100509.22;5032796;28;20029;-77
2024/02/18 01:00:39;;;;;;;16.75;9.93;;;;;;;8.27;100.00;100494.91;5035415;28;20066;-76
2024/02/18 01:03:04;;;;;;;17.13;9.10;;;;;;;8.29;100.00;100506.41;5024654;28;20022;-77
2024/02/18 01:05:30;;;;;;;15.50;8.73;;;;;;;8.15;100.00;100489.81;5023185;28;20239;-78
2024/02/18 01:07:55;;;;;;;18.13;9.60;;;;;;;8.14;100.00;100510.56;5022637;28;20068;-78
2024/02/18 01:10:20;;;;;;;17.10;10.10;;;;;;;8.05;100.00;100498.81;5022256;28;20053;-78
2024/02/18 01:12:47;;;;;;;16.15;10.02;;;;;;;8.01;100.00;100493.84;5021943;28;20084;-77
2024/02/18 01:15:12;;;;;;;19.58;10.57;;;;;;;8.08;100.00;100511.16;5022348;28;20321;-77
2024/02/18 01:17:37;;;;;;;17.55;10.40;;;;;;;8.06;100.00;100510.44;5023839;28;20080;-77
2024/02/18 01:20:04;;;;;;;20.00;11.10;;;;;;;8.07;100.00;100512.16;5023326;28;20049;-77
2024/02/18 01:22:29;;;;;;;20.33;10.88;;;;;;;7.97;100.00;100501.38;5021238;28;20056;-78
2024/02/18 01:24:54;;;;;;;18.05;10.85;;;;;;;8.01;100.00;100510.00;5024367;28;20030;-78
2024/02/18 01:27:20;;;;;;;18.73;10.85;;;;;;;7.92;100.00;100492.03;5023066;28;20030;-78
2024/02/18 01:29:45;;;;;;;23.70;11.20;;;;;;;7.98;100.00;100511.16;5023080;28;20266;-78
2024/02/18 01:32:10;;;;;;;22.23;10.05;;;;;;;7.90;100.00;100497.56;5024880;28;20026;-78
2024/02/18 01:34:35;;;;;;;20.02;9.32;;;;;;;7.83;100.00;100480.25;5020627;28;20017;-76
2024/02/18 01:37:01;;;;;;;14.60;9.07;;;;;;;7.92;100.00;100503.66;5024051;28;20014;-76
2024/02/18 01:39:26;;;;;;;15.27;8.93;;;;;;;8.04;100.00;100515.09;5023409;28;20037;-77
2024/02/18 01:41:52;;;;;;;16.33;9.18;;;;;;;7.98;100.00;100484.19;5022309;28;20018;-78
2024/02/18 01:44:17;;;;;;;17.67;9.95;;;;;;;8.05;100.00;100498.81;5022934;28;20064;-77
2024/02/18 01:46:43;;;;;;;15.75;8.98;;;;;;;8.04;100.00;100480.06;5022097;28;20041;-77
2024/02/18 01:49:08;;;;;;;16.90;9.15;;;;;;;8.19;100.00;100502.03;5033254;28;20018;-77
2024/02/18 01:51:34;;;;;;;17.17;9.07;;;;;;;8.12;100.00;100491.84;5023310;28;20089;-79
2024/02/18 01:54:00;;;;;;;13.13;8.45;;;;;;;7.94;100.00;100477.41;5021000;28;20266;-76
2024/02/18 01:56:26;;;;;;;18.58;8.25;;;;;;;7.98;100.00;100477.97;5021441;28;20025;-77
2024/02/18 01:58:51;;;;;;;20.15;9.05;;;;;;;7.98;100.00;100486.91;5023277;28;20029;-79
2024/02/18 02:01:17;;;;;;;17.55;8.88;;;;;;;7.91;100.00;100496.53;5021209;28;20097;-78
2024/02/18 02:03:45;;;;;;;17.13;8.13;;;;;;;7.77;100.00;100494.31;5021556;28;20097;-77
2024/02/18 02:06:13;;;;;;;18.10;8.20;;;;;;;7.78;100.00;100493.31;5021955;28;20017;-77
2024/02/18 02:08:39;;;;;;;13.40;8.23;;;;;;;7.55;100.00;100474.78;5020563;28;20030;-77
2024/02/18 02:11:04;;;;;;;17.35;9.68;;;;;;;7.60;100.00;100512.06;5026118;28;20039;-76
2024/02/18 02:13:29;;;;;;;18.98;10.63;;;;;;;7.46;100.00;100489.94;5036701;28;20036;-77
2024/02/18 02:15:55;;;;;;;17.40;10.07;;;;;;;7.29;100.00;100481.72;5018327;28;20026;-77
2024/02/18 02:18:20;;;;;;;17.27;10.95;;;;;;;7.23;100.00;100484.00;5018395;28;20030;-78
2024/02/18 02:20:45;;;;;;;16.30;10.30;;;;;;;7.14;100.00;100500.97;5022997;28;20022;-77
2024/02/18 02:23:11;;;;;;;18.17;10.55;;;;;;;6.86;100.00;100464.94;5027063;28;20085;-77
2024/02/18 02:25:37;;;;;;;19.42;10.52;;;;;;;6.92;100.00;100487.78;5034358;28;20029;-79
2024/02/18 02:28:21;;;;;;;18.20;9.68;;;;;;;6.84;100.00;100484.91;5033613;28;20033;-77
2024/02/18 02:30:48;;;;;;;14.32;8.43;;;;;;;6.56;100.00;100466.72;5024459;28;20045;-77
2024/02/18 02:33:14;;;;;;;17.80;9.65;;;;;;;6.39;100.00;100463.81;5021286;28;20380;-77
2024/02/18 02:35:39;;;;;;;22.20;10.60;;;;;;;6.40;100.00;100476.28;5024589;28;20120;-76
2024/02/18 02:38:05;;;;;;;19.25;10.68;;;;;;;6.44;100.00;100480.38;5023525;28;20420;-76
2024/02/18 02:40:30;;;;;;;23.00;11.88;;;;;;;6.42;100.00;100485.91;5024438;28;20048;-75
2024/02/18 02:42:55;;;;;;;19.27;10.70;;;;;;;6.20;100.00;100465.44;5023471;28;20444;-76
2024/02/18 02:45:21;;;;;;;20.30;10.57;;;;;;;6.08;100.00;100459.31;5021513;28;20053;-76
2024/02/18 02:47:46;;;;;;;16.60;9.57;;;;;;;6.09;100.00;100473.59;5017893;28;20025;-75
2024/02/18 02:50:11;;;;;;;20.58;9.95;;;;;;;6.00;100.00;100474.38;5019699;28;20029;-76
2024/02/18 02:52:40;;;;;;;19.55;10.55;;;;;;;5.95;100.00;100471.22;5025684;28;20194;-76
2024/02/18 02:55:06;;;;;;;21.50;11.10;;;;;;;5.90;100.00;100466.25;5023148;28;20030;-76
2024/02/18 02:57:31;;;;;;;25.05;11.55;;;;;;;5.98;100.00;100476.38;5022045;28;20037;-74
2024/02/18 02:59:56;;;;;;;16.73;10.52;;;;;;;5.95;100.00;100468.53;5018019;28;20036;-76
2024/02/18 03:02:22;;;;;;;24.45;12.35;;;;;;;5.97;100.00;100466.56;5023731;28;20032;-76
2024/02/18 03:04:47;;;;;;;22.17;11.82;;;;;;;5.83;100.00;100467.75;5019560;28;20028;-76
2024/02/18 03:07:12;;;;;;;23.98;13.15;;;;;;;5.79;100.00;100472.53;5039163;28;20021;-76
2024/02/18 03:09:37;;;;;;;23.48;11.30;;;;;;;5.90;100.00;100474.31;5023100;28;20026;-76
2024/02/18 03:12:03;;;;;;;20.23;12.30;;;;;;;5.89;100.00;100468.09;5023150;28;20045;-75
2024/02/18 03:14:29;;;;;;;21.90;10.98;;;;;;;5.74;100.00;100473.88;5024208;28;20025;-76
2024/02/18 03:16:56;;;;;;;19.73;10.88;;;;;;;5.72;100.00;100482.09;5022730;28;20033;-75
2024/02/18 03:19:21;;;;;;;20.88;10.98;;;;;;;5.64;100.00;100489.97;5022426;28;20057;-76
2024/02/18 03:21:46;;;;;;;23.08;11.07;;;;;;;5.61;100.00;100476.78;5024187;28;20024;-76
2024/02/18 03:24:12;;;;;;;20.13;11.43;;;;;;;5.64;100.00;100474.69;5023280;28;20049;-76
2024/02/18 03:26:37;;;;;;;16.00;10.52;;;;;;;5.43;100.00;100463.94;5023685;28;20045;-75
2024/02/18 03:29:03;;;;;;;21.98;11.52;;;;;;;5.44;100.00;100451.38;5022295;28;20022;-76
2024/02/18 03:31:29;;;;;;;22.25;11.48;;;;;;;5.55;100.00;100458.50;5022771;28;20370;-76
2024/02/18 03:33:55;;;;;;;28.20;12.13;;;;;;;5.47;100.00;100478.78;5021992;28;20053;-76
2024/02/18 03:36:20;;;;;;;21.63;11.50;;;;;;;5.45;100.00;100469.19;5022252;28;20033;-76
2024/02/18 03:38:45;;;;;;;22.27;12.50;;;;;;;5.43;100.00;100472.00;5022048;28;20383;-75
2024/02/18 03:41:11;;;;;;;24.13;13.15;;;;;;;5.42;100.00;100473.00;5024762;28;20050;-76
2024/02/18 03:43:36;;;;;;;23.38;12.88;;;;;;;5.39;100.00;100465.16;5022740;28;20026;-75
2024/02/18 03:46:02;;;;;;;24.65;12.98;;;;;;;5.25;100.00;100455.59;5021917;28;20038;-75
2024/02/18 03:48:28;;;;;;;24.50;14.73;;;;;;;5.18;100.00;100453.56;5022748;28;20329;-74
2024/02/18 03:50:53;;;;;;;23.35;13.07;;;;;;;5.23;100.00;100464.75;5024325;28;20420;-75
2024/02/18 03:53:18;;;;;;;22.30;12.30;;;;;;;5.02;100.00;100452.16;5021976;28;20162;-75
2024/02/18 03:55:43;;;;;;;30.70;13.27;;;;;;;5.03;100.00;100461.91;5024419;28;20073;-74
2024/02/18 03:58:10;;;;;;;20.85;11.93;;;;;;;4.99;100.00;100459.59;5024096;28;20072;-76
2024/02/18 04:00:36;;;;;;;18.52;10.68;;;;;;;4.91;100.00;100465.59;5021392;28;20036;-75
2024/02/18 04:03:02;;;;;;;23.35;11.10;;;;;;;4.91;100.00;100470.13;5023272;28;20028;-75
2024/02/18 04:05:27;;;;;;;20.38;10.82;;;;;;;4.83;100.00;100468.06;5017445;28;20018;-75
2024/02/18 04:07:53;;;;;;;21.05;10.63;;;;;;;4.65;100.00;100453.47;5019778;28;20022;-75
2024/02/18 04:10:18;;;;;;;22.65;12.13;;;;;;;4.76;100.00;100466.84;5023979;28;20021;-75
2024/02/18 04:12:43;;;;;;;22.23;12.00;;;;;;;4.89;100.00;100475.59;5020207;28;20214;-75
2024/02/18 04:15:09;;;;;;;19.52;11.55;;;;;;;4.83;100.00;100446.59;5017275;28;20014;-75
2024/02/18 04:17:34;;;;;;;26.35;12.23;;;;;;;4.95;100.00;100469.75;5018354;28;20334;-75
2024/02/18 04:19:59;;;;;;;27.20;13.70;;;;;;;4.86;100.00;100450.88;5018564;28;20225;-75
2024/02/18 04:22:25;;;;;;;25.75;13.07;;;;;;;4.81;100.00;100459.28;5025820;28;20026;-75
2024/02/18 04:24:50;;;;;;;21.95;11.90;;;;;;;4.81;100.00;100453.91;5022461;28;20029;-76
2024/02/18 04:27:15;;;;;;;23.98;12.55;;;;;;;4.83;100.00;100462.69;5018815;28;20041;-76
2024/02/18 04:29:41;;;;;;;21.42;12.57;;;;;;;4.89;100.00;100462.19;5022613;28;20033;-76
2024/02/18 04:32:06;;;;;;;21.27;12.13;;;;;;;4.78;100.00;100446.13;5024450;28;20317;-76
2024/02/18 04:34:32;;;;;;;20.90;11.95;;;;;;;4.78;100.00;100446.13;5022261;28;20021;-76
2024/02/18 04:36:58;;;;;;;23.92;13.18;;;;;;;4.94;100.00;100465.34;5021523;28;20372;-75
2024/02/18 04:39:23;;;;;;;24.80;13.40;;;;;;;4.79;100.00;100448.69;5025944;28;20026;-76
2024/02/18 04:41:49;;;;;;;23.42;12.25;;;;;;;4.76;100.00;100437.34;5023554;28;20022;-75
2024/02/18 04:44:15;;;;;;;25.63;12.93;;;;;;;4.80;100.00;100452.22;5021364;28;20064;-75
2024/02/18 04:46:40;;;;;;;25.30;12.35;;;;;;;4.72;100.00;100449.31;5020967;28;20218;-75
2024/02/18 04:49:06;;;;;;;28.13;14.10;;;;;;;4.71;100.00;100442.25;5018287;28;20030;-75
2024/02/18 04:51:31;;;;;;;29.58;13.88;;;;;;;4.73;100.00;100445.66;5022022;28;20037;-75
2024/02/18 04:53:56;;;;;;;36.90;15.57;;;;;;;4.73;100.00;100451.03;5021963;28;20033;-75
2024/02/18 04:56:21;;;;;;;24.15;13.40;;;;;;;4.75;100.00;100455.28;5021528;28;20030;-75
2024/02/18 04:58:47;;;;;;;20.95;11.45;;;;;;;4.54;100.00;100447.16;5018927;28;20076;-76
2024/02/18 05:01:12;;;;;;;20.05;11.27;;;;;;;4.60;100.00;100461.88;5034818;28;20432;-77
2024/02/18 05:03:40;;;;;;;20.95;11.93;;;;;;;4.45;100.00;100449.72;5019058;28;20221;-77
2024/02/18 05:06:09;;;;;;;24.42;12.40;;;;;;;4.34;100.00;100435.34;5020212;28;20216;-76
2024/02/18 05:08:35;;;;;;;21.65;9.10;;;;;;;4.34;100.00;100446.06;5017399;28;20312;-77
2024/02/18 05:11:00;;;;;;;20.75;11.70;;;;;;;4.08;100.00;100437.44;5035167;28;20038;-76
2024/02/18 05:13:26;;;;;;;19.35;11.43;;;;;;;4.02;100.00;100424.53;5018981;28;20026;-76
2024/02/18 05:15:51;;;;;;;23.27;11.48;;;;;;;3.98;100.00;100425.75;5019154;28;20233;-76
2024/02/18 05:18:18;;;;;;;32.63;13.65;;;;;;;4.04;100.00;100421.75;5019697;28;20038;-76
2024/02/18 05:20:43;;;;;;;27.85;14.80;;;;;;;4.16;100.00;100428.78;5019135;28;20100;-76
2024/02/18 05:23:09;;;;;;;28.52;14.05;;;;;;;4.23;100.00;100431.84;5030028;28;20034;-76
2024/02/18 05:25:36;;;;;;;38.33;15.82;;;;;;;4.29;100.00;100416.13;5016389;28;20030;-76
2024/02/18 05:28:01;;;;;;;36.70;14.73;;;;;;;4.29;100.00;100428.66;5018751;28;20030;-76
2024/02/18 05:30:26;;;;;;;36.20;15.10;;;;;;;4.09;100.00;100414.19;5018389;28;20128;-76
2024/02/18 05:32:52;;;;;;;28.63;15.60;;;;;;;4.02;100.00;100403.09;5021479;28;20351;-76
2024/02/18 05:35:17;;;;;;;29.38;15.05;;;;;;;4.07;100.00;100421.50;5020481;28;20067;-76
2024/02/18 05:37:43;;;;;;;28.08;13.88;;;;;;;3.98;100.00;100423.06;5020065;28;20038;-75
2024/02/18 05:40:08;;;;;;;30.42;13.80;;;;;;;4.14;100.00;100431.59;5021315;28;20215;-76
2024/02/18 05:42:34;;;;;;;27.90;14.55;;;;;;;4.06;100.00;100426.00;5022844;28;20025;-76
2024/02/18 05:44:59;;;;;;;25.73;12.98;;;;;;;4.10;100.00;100430.13;5020613;28;20324;-76
2024/02/18 05:47:24;;;;;;;29.08;13.70;;;;;;;3.99;100.00;100421.25;5018098;28;20025;-76
2024/02/18 05:49:50;;;;;;;27.17;12.85;;;;;;;4.06;100.00;100417.97;5019057;28;20252;-76
2024/02/18 05:52:15;;;;;;;20.80;11.32;;;;;;;4.01;100.00;100417.47;5020040;28;20022;-76
2024/02/18 05:54:42;;;;;;;24.33;11.88;;;;;;;3.82;100.00;100398.47;5019888;28;20022;-75
2024/02/18 05:57:09;;;;;;;23.67;11.90;;;;;;;3.89;100.00;100407.75;5022275;28;20025;-75
2024/02/18 05:59:34;;;;;;;28.45;13.02;;;;;;;3.94;100.00;100422.47;5021765;28;20052;-75
2024/02/18 06:01:59;;;;;;;28.83;13.73;;;;;;;3.87;100.00;100418.56;5021727;28;20076;-76
2024/02/18 06:04:25;;;;;;;22.67;12.20;;;;;;;3.81;100.00;100404.81;5017969;28;20257;-76
2024/02/18 06:06:50;;;;;;;24.17;12.50;;;;;;;3.83;100.00;100413.59;5019873;28;20053;-76
2024/02/18 06:09:16;;;;;;;26.85;12.35;;;;;;;3.82;100.00;100403.81;5026150;28;20385;-83
2024/02/18 06:11:41;;;;;;;24.48;12.73;;;;;;;3.84;100.00;100401.88;5028304;28;20026;-81
2024/02/18 06:14:06;;;;;;;28.15;12.40;;;;;;;3.89;100.00;100408.59;5027055;28;20287;-80
2024/02/18 06:16:32;;;;;;;21.35;13.60;;;;;;;3.81;100.00;100392.28;5027272;28;20123;-80
2024/02/18 06:18:57;;;;;;;24.10;12.63;;;;;;;3.85;100.00;100398.22;5028438;28;20018;-79
2024/02/18 06:21:23;;;;;;;25.52;12.82;;;;;;;4.01;100.00;100406.78;5026771;28;20329;-80
2024/02/18 06:23:48;;;;;;;21.00;11.52;;;;;;;4.04;100.00;100414.56;5016578;28;20085;-79
2024/02/18 06:26:15;;;;;;;21.15;11.63;;;;;;;4.03;100.00;100399.44;5024364;28;20329;-80
2024/02/18 06:28:41;;;;;;;22.50;11.45;;;;;;;3.97;100.00;100383.88;5043205;28;20093;-79
2024/02/18 06:31:06;;;;;;;23.50;12.02;;;;;;;4.11;100.00;100399.72;5029260;28;20025;-78
2024/02/18 06:33:31;;;;;;;20.73;11.88;;;;;;;4.04;100.00;100377.06;5027601;28;20281;-79
2024/02/18 06:35:57;;;;;;;25.73;12.25;;;;;;;4.14;100.00;100388.75;5021638;28;20097;-79
2024/02/18 06:38:22;;;;;;;31.20;12.90;;;;;;;4.05;100.00;100386.78;5023218;28;20030;-79
2024/02/18 06:40:47;;;;;;;23.15;11.90;;;;;;;4.10;100.00;100381.91;5022871;28;20033;-79
2024/02/18 06:43:13;;;;;;;25.20;12.40;;;;;;;4.35;100.00;100393.34;5025846;28;20025;-79
2024/02/18 06:45:38;;;;;;;23.15;12.40;;;;;;;4.42;100.00;100389.19;5019428;28;20030;-82
2024/02/18 06:48:04;;;;;;;29.15;13.85;;;;;;;4.56;100.00;100394.28;5007427;28;20280;-78
2024/02/18 06:50:29;;;;;;;28.77;13.55;;;;;;;4.37;100.00;100365.44;5024936;28;20028;-80
2024/02/18 06:52:55;;;;;;;29.42;13.27;;;;;;;4.53;100.00;100375.78;5022050;28;20046;-79
2024/02/18 06:55:20;;;;;;;29.95;14.55;;;;;;;4.60;100.00;100387.66;5025201;28;20053;-80
2024/02/18 06:57:46;;;;;;;36.90;14.30;;;;;;;4.59;100.00;100383.31;5024972;28;20100;-80
2024/02/18 07:00:12;;;;;;;38.13;16.23;;;;;;;4.79;100.00;100405.81;5026886;28;20029;-77
2024/02/18 07:02:37;;;;;;;32.75;16.60;;;;;;;4.99;100.00;100409.50;5023528;28;20026;-78
2024/02/18 07:05:06;;;;;;;34.78;14.75;;;;;;;5.04;100.00;100396.53;5026753;28;20144;-76
2024/02/18 07:07:31;;;;;;;55.88;14.05;;;;;;;5.01;100.00;100387.91;5022646;28;20029;-76
2024/02/18 07:09:56;;;;;;;22.75;11.43;;;;;;;5.00;100.00;100375.47;5023280;28;20022;-73
2024/02/18 07:12:22;;;;;;;29.60;11.25;;;;;;;5.07;100.00;100378.50;5020118;28;20225;-73
2024/02/18 07:14:47;;;;;;;34.15;10.57;;;;;;;5.17;100.00;100380.28;5023220;28;20025;-74
2024/02/18 07:17:19;;;;;;;22.20;9.65;;;;;;;5.32;100.00;100380.81;5024261;28;20068;-73
2024/02/18 07:19:45;;;;;;;21.65;10.23;;;;;;;5.40;100.00;100374.78;5036695;28;20022;-73
2024/02/18 07:22:10;;;;;;;31.17;10.20;;;;;;;5.25;100.00;100369.72;5019404;28;20017;-73
2024/02/18 07:24:35;;;;;;;41.28;10.38;;;;;;;5.42;100.00;100388.91;5020793;28;20037;-73
2024/02/18 07:27:01;;;;;;;28.95;10.70;;;;;;;5.37;100.00;100370.53;5036095;28;20032;-78
2024/02/18 07:29:27;;;;;;;18.65;10.90;;;;;;;5.60;100.00;100373.06;5028111;28;20030;-78
2024/02/18 07:31:52;;;;;;;16.38;9.90;;;;;;;5.88;100.00;100363.44;5027683;28;20021;-79
2024/02/18 07:34:17;;;;;;;18.70;10.48;;;;;;;6.51;100.00;100376.69;5025614;28;20228;-79
2024/02/18 07:36:43;;;;;;;15.43;9.00;;;;;;;7.41;100.00;100351.31;5027580;28;20085;-79
2024/02/18 07:39:10;;;;;;;13.20;8.63;;;;;;;9.09;100.00;100323.19;5017507;28;20440;-77
2024/02/18 07:41:36;;;;;;;9.88;6.28;;;;;;;11.18;100.00;100303.69;5021833;28;20029;-78
2024/02/18 07:44:01;;;;;;;10.15;6.30;;;;;;;12.72;100.00;100287.84;5027895;28;20045;-78
2024/02/18 07:46:28;;;;;;;10.55;5.95;;;;;;;13.45;100.00;100292.88;5024449;28;20022;-77
2024/02/18 07:48:53;;;;;;;8.10;5.60;;;;;;;13.42;100.00;100266.88;5031625;28;20041;-81
2024/02/18 07:51:19;;;;;;;8.63;5.40;;;;;;;12.77;100.00;100302.75;5031221;28;20021;-80
2024/02/18 07:53:44;;;;;;;8.30;5.72;;;;;;;12.34;100.00;100277.91;5036592;28;20026;-79
2024/02/18 07:56:09;;;;;;;7.93;5.25;;;;;;;12.39;100.00;100300.81;5034927;28;20028;-79
2024/02/18 07:58:35;;;;;;;7.28;5.32;;;;;;;12.58;100.00;100306.78;5028456;28;20088;-71
2024/02/18 08:01:00;;;;;;;7.07;4.88;;;;;;;12.57;100.00;100302.38;5023521;28;20030;-71
2024/02/18 08:03:25;;;;;;;10.23;6.07;;;;;;;12.27;100.00;100310.34;5020323;28;20026;-71
2024/02/18 08:05:51;;;;;;;9.30;5.80;;;;;;;11.81;100.00;100280.34;5020813;28;20100;-71
2024/02/18 08:08:16;;;;;;;9.85;6.10;;;;;;;12.25;100.00;100301.53;5018853;28;20321;-70
2024/02/18 08:10:41;;;;;;;10.48;5.65;;;;;;;13.40;100.00;100303.44;5021164;28;20021;-72
2024/02/18 08:13:09;;;;;;;12.73;6.30;;;;;;;13.25;100.00;100304.22;5021108;28;20025;-72
2024/02/18 08:15:34;;;;;;;8.60;5.63;;;;;;;12.50;100.00;100294.97;5019874;28;20030;-71
2024/02/18 08:18:00;;;;;;;10.07;6.10;;;;;;;12.56;100.00;100271.66;5017057;28;20112;-80
2024/02/18 08:20:25;;;;;;;8.82;6.03;;;;;;;12.49;100.00;100276.97;5030108;28;20026;-77
2024/02/18 08:22:50;;;;;;;8.38;6.07;;;;;;;12.74;100.00;100256.97;5024791;28;20021;-75
2024/02/18 08:25:16;;;;;;;9.68;6.38;;;;;;;12.77;100.00;100290.00;5023287;28;20029;-72
2024/02/18 08:27:41;;;;;;;11.98;7.65;;;;;;;12.71;100.00;100269.03;5036859;28;20018;-77
2024/02/18 08:30:08;;;;;;;12.80;7.53;;;;;;;12.35;100.00;100264.16;5023256;28;20025;-74
2024/02/18 08:32:33;;;;;;;17.80;9.10;;;;;;;11.90;100.00;100256.78;5016452;28;20105;-74
2024/02/18 08:34:59;;;;;;;13.20;8.65;;;;;;;11.99;100.00;100226.72;5021983;28;20026;-79
2024/02/18 08:37:24;;;;;;;16.58;8.50;;;;;;;12.49;100.00;100257.97;5028982;28;20009;-80
2024/02/18 08:39:50;;;;;;;13.68;7.55;;;;;;;12.79;100.00;100260.81;5030379;28;20025;-79
2024/02/18 08:42:15;;;;;;;16.75;7.50;;;;;;;12.80;100.00;100254.34;5031273;28;20072;-80
2024/02/18 08:44:41;;;;;;;19.15;8.10;;;;;;;12.65;100.00;100250.72;5029104;28;20018;-79
2024/02/18 08:47:07;;;;;;;11.93;7.35;;;;;;;12.56;100.00;100238.25;5023716;28;20060;-77
2024/02/18 08:49:32;;;;;;;14.75;7.45;;;;;;;13.28;100.00;100248.66;5038326;28;20026;-81
2024/02/18 08:51:58;;;;;;;18.13;7.38;;;;;;;13.22;100.00;100243.97;5029711;28;20033;-79
2024/02/18 08:54:25;;;;;;;11.02;7.07;;;;;;;13.07;100.00;100223.06;5023997;28;20221;-79
2024/02/18 08:56:50;;;;;;;13.05;7.80;;;;;;;13.10;100.00;100257.16;5021197;28;20083;-70
2024/02/18 08:59:15;;;;;;;12.65;7.35;;;;;;;13.41;100.00;100246.16;5024532;28;20033;-76
2024/02/18 09:01:41;;;;;;;12.70;7.40;;;;;;;14.61;100.00;100234.06;5017955;28;20366;-75
2024/02/18 09:04:09;;;;;;;11.38;7.05;;;;;;;15.71;100.00;100235.34;5028517;28;20097;-77
2024/02/18 09:06:34;;;;;;;8.32;6.18;;;;;;;18.18;100.00;100237.16;5022899;28;20034;-78
2024/02/18 09:08:59;;;;;;;9.95;6.72;;;;;;;19.07;88.88;100234.50;5022875;28;20044;-79
2024/02/18 09:11:25;;;;;;;8.82;6.50;;;;;;;19.35;80.21;100212.94;5025831;28;20321;-80
2024/02/18 09:13:50;;;;;;;11.32;7.50;;;;;;;19.54;81.50;100221.19;5023700;28;20021;-81
2024/02/18 09:16:15;;;;;;;7.93;5.97;;;;;;;19.50;77.90;100226.31;5023331;28;20133;-73
2024/02/18 09:18:45;;;;;;;11.10;6.85;;;;;;;18.28;82.71;100214.78;5015412;28;20073;-73
2024/02/18 09:21:10;;;;;;;10.88;6.88;;;;;;;18.13;85.00;100190.41;5021680;28;20071;-73
2024/02/18 09:23:36;;;;;;;10.57;6.35;;;;;;;17.97;86.27;100219.13;5020407;28;20467;-73
2024/02/18 09:26:02;;;;;;;9.35;6.07;;;;;;;17.04;88.45;100189.25;5022907;28;20026;-73
2024/02/18 09:28:27;;;;;;;9.02;5.65;;;;;;;17.18;87.13;100212.78;5020413;28;20026;-73
2024/02/18 09:30:54;;;;;;;9.95;6.60;;;;;;;16.22;100.00;100215.84;5020097;28;20022;-73
2024/02/18 09:33:19;;;;;;;9.57;6.10;;;;;;;16.92;100.00;100202.69;5017397;28;20030;-73
2024/02/18 09:35:45;;;;;;;9.40;5.95;;;;;;;17.06;96.13;100209.03;5017387;28;20374;-73
2024/02/18 09:38:12;;;;;;;10.27;5.78;;;;;;;17.00;95.48;100201.66;5017457;28;20098;-73
2024/02/18 09:40:37;;;;;;;12.73;6.32;;;;;;;15.98;100.00;100198.09;5018118;28;20045;-84
2024/02/18 09:43:03;;;;;;;10.38;6.40;;;;;;;15.30;100.00;100197.94;5021451;28;20026;-80
2024/02/18 09:45:32;;;;;;;11.60;6.82;;;;;;;14.34;100.00;100202.97;5032038;28;20076;-80
2024/02/18 09:47:58;;;;;;;10.53;7.00;;;;;;;13.61;100.00;100189.34;5039190;28;20052;-82
2024/02/18 09:50:25;;;;;;;11.68;7.55;;;;;;;13.15;100.00;100176.78;5031493;28;20030;-81
2024/02/18 09:52:52;;;;;;;11.55;7.28;;;;;;;12.67;100.00;100181.63;5027317;28;20021;-82
2024/02/18 09:55:18;;;;;;;11.73;8.05;;;;;;;12.12;100.00;100190.03;5020164;28;20028;-73
2024/02/18 09:57:43;;;;;;;11.30;7.03;;;;;;;11.87;100.00;100178.47;5019304;28;20022;-75
2024/02/18 10:00:09;;;;;;;9.90;6.97;;;;;;;11.85;100.00;100181.34;5016707;28;20021;-81
2024/02/18 10:02:35;;;;;;;11.73;7.50;;;;;;;11.70;100.00;100191.25;5020644;28;20251;-68
2024/02/18 10:05:02;;;;;;;12.95;7.03;;;;;;;11.92;100.00;100174.22;5021283;28;20018;-68
2024/02/18 10:07:27;;;;;;;11.05;7.07;;;;;;;12.11;100.00;100181.06;5024709;28;20075;-66
2024/02/18 10:09:53;;;;;;;12.30;7.07;;;;;;;12.34;100.00;100181.06;5020556;28;20021;-67
2024/02/18 10:12:19;;;;;;;15.10;7.57;;;;;;;11.93;100.00;100172.34;5026341;28;20024;-67
2024/02/18 10:14:55;;;;;;;14.48;8.48;;;;;;;12.29;100.00;100145.50;5022319;28;20030;-68
2024/02/18 10:17:21;;;;;;;13.40;7.72;;;;;;;12.79;100.00;100168.47;5016355;28;20097;-68
2024/02/18 10:19:47;;;;;;;12.70;6.93;;;;;;;13.27;100.00;100170.91;5017999;28;20034;-68
2024/02/18 10:22:13;;;;;;;12.75;7.55;;;;;;;13.46;100.00;100161.31;5021632;28;20050;-68
2024/02/18 10:24:38;;;;;;;12.32;7.07;;;;;;;13.65;100.00;100159.88;5020054;28;20037;-69
2024/02/18 10:27:04;;;;;;;10.57;7.00;;;;;;;13.48;100.00;100161.97;5019335;28;20109;-68
2024/02/18 10:32:58;;;;;;;12.98;7.20;;;;;;;13.65;100.00;100154.44;5021261;28;20056;-71
2024/02/18 10:35:24;;;;;;;16.77;7.22;;;;;;;14.28;100.00;100141.13;5016036;28;20053;-71
2024/02/18 10:37:55;;;;;;;11.13;7.13;;;;;;;14.47;100.00;100126.84;5015030;28;20057;-72
2024/02/18 10:40:45;;;;;;;11.63;6.97;;;;;;;15.13;100.00;100116.47;5019313;28;20097;-72
2024/02/18 10:43:12;;;;;;;11.65;7.60;;;;;;;15.51;100.00;100121.50;5022967;28;20059;-72
2024/02/18 10:45:41;;;;;;;11.70;6.78;;;;;;;15.56;100.00;100129.03;5026277;28;20021;-72
2024/02/18 10:48:10;;;;;;;10.40;6.75;;;;;;;15.69;100.00;100122.84;5020756;28;20282;-73
2024/02/18 10:50:42;;;;;;;10.77;6.90;;;;;;;15.91;100.00;100102.56;5018974;28;20148;-72
2024/02/18 10:53:23;;;;;;;10.82;6.75;;;;;;;15.90;100.00;100106.34;5022066;28;20018;-72
2024/02/18 10:56:20;;;;;;;14.50;7.32;;;;;;;15.74;100.00;100117.59;5022609;28;20352;-71
2024/02/18 10:59:12;;;;;;;12.63;6.97;;;;;;;15.58;100.00;100121.50;5015011;28;20040;-71
2024/02/18 11:01:42;;;;;;;11.75;6.75;;;;;;;15.08;100.00;100120.84;5024539;28;20261;-72
2024/02/18 11:04:09;;;;;;;13.10;7.85;;;;;;;15.02;100.00;100105.28;5018523;28;20014;-71
2024/02/18 11:06:35;;;;;;;11.32;7.43;;;;;;;14.78;100.00;100103.88;5027816;28;20068;-72
2024/02/18 11:09:01;;;;;;;12.55;7.38;;;;;;;14.89;100.00;100098.72;5024491;28;20093;-72
2024/02/18 11:11:27;;;;;;;10.98;7.55;;;;;;;15.28;100.00;100077.34;5021805;28;20037;-71